Villas, New Jersey
Current Conditions -  °F | °C
As of 4:35 PM on Saturday 22 Nov 2014 (Local Time) from KWWD Reporting Station
Clear Clear  
Wind Chill: 40°   Ceiling: Unl
Heat Index: 45°   Visibility: 10mi
Dew Point: 19°   Wind: 9mph
Humidity: 37%   Direction: 220°SW
Pressure: 30.33"   Gusts: NA
Location:  39.03°N, 74.94°W
Report Text: KWWD 222135Z AUTO 22008KT 10SM CLR 07/M07 A3033 RMK AO1
Loading
Personal Weather Stations






























Interactive Weather Map New forecast layout! Learn more

10-Day Weather Forecast

Advertisements
Track Severe Weather on mobile